Etusivu
METAR-TAF:

METAR-TAF

Lentoasemat :

Longyearbyen, Norja

Huippuvuorten lentoasema

Leveyspiiri: 78-15N, Pituuspiiri: 015-28E, korkeus merenpinnasta: 2 m

Tämänhetkinen sää

Tämä raportti tehtiin 34 minuuttia sitten, kello 06.50 UTC
Tuuli 11 kn lounaasta
Lämpötila -1°C
Kosteus 64%
Ilmanpaine 1016 hPa
Näkyvyys 10 km tai enemmän
Muutamia pilviä 2500 ft:n korkeudessa
Hajonneita pilviä 20000 ft:n korkeudessa

METAR: ENSB 260650Z 23011KT 9999 FEW025 BKN200 M01/M07 Q1016 NOSIG RMK WIND 1400FT 22010KT

Aika: 09:24 (07:24 UTC)

Sääennuste

Ennuste voimassa 26. päivästä klo 06 UTC - 27. päivään klo 06 UTC
Tuuli 5 kn luoteesta
Näkyvyys 10 km tai enemmän
Muutamia pilviä 1500 ft:n korkeudessa
Hajonneita pilviä 4000 ft:n korkeudessa
Ajoittain
26. päivästä klo 06 UTC - 26. päivään klo 21 UTC
Tuuli 12 kn lännestä

TAF: ENSB 2606/2706 32005KT 9999 FEW015 BKN040 TEMPO 2606/2621 26012KT

Säähavainnot ja -ennusteet yli 4000 lentoasemalta (METAR- ja TAF-raportit).

Käytössä olevat sääasemat on merkitty karttaan keltaisilla ja punaisilla pisteillä.

Aseta hiiri pisteen päälle nähdäksesi sääaseman nimen.

Klikkaa sitten nähdäksesi säähavainnot ja -ennusteet.

Kartan vaihtaminen: klikkaa mustalla rastilla varustettuja vihreitä pisteitä, niin voit zoomata sisään; viivalla varustettua vihreää pistettä, niin voit zoomata ulos tai vihreitä nuolia, niin pääset viereisille kartoille.


METAR-TAF: